Time;durP1;ratioP1;P1;durP2;ratioP2;P2;SDS_P1;SDS_P2;PMS_P1;PMS_P2;Temp;Humidity;BMP_temperature;BMP_pressure;BME280_temperature;BME280_humidity;BME280_pressure;Samples;Min_cycle;Max_cycle;Signal;HPM_P1;HPM_P2
2022/03/13 00:00:27;;;;;;;6.00;4.55;;;20.30;40.30;;;;;;5031857;28;20238;-67
2022/03/13 00:02:54;;;;;;;5.50;4.97;;;20.30;40.30;;;;;;4997989;28;20191;-67
2022/03/13 00:05:19;;;;;;;6.50;5.03;;;20.30;40.30;;;;;;5031977;28;20549;-68
2022/03/13 00:07:47;;;;;;;4.82;4.32;;;20.30;40.40;;;;;;4997871;28;20715;-67
2022/03/13 00:10:27;;;;;;;4.72;4.30;;;20.30;40.30;;;;;;5014279;28;20179;-67
2022/03/13 00:12:54;;;;;;;4.60;4.20;;;20.30;40.40;;;;;;4994512;28;20199;-67
2022/03/13 00:15:35;;;;;;;4.53;4.13;;;20.30;40.20;;;;;;4978543;28;20188;-68
2022/03/13 00:18:02;;;;;;;4.68;4.28;;;20.30;40.40;;;;;;4994696;28;20696;-67
2022/03/13 00:20:28;;;;;;;4.88;4.47;;;20.30;40.40;;;;;;4994434;28;20676;-67
2022/03/13 00:22:54;;;;;;;4.78;4.32;;;20.30;40.30;;;;;;4998156;28;20195;-67
2022/03/13 00:25:20;;;;;;;5.20;4.60;;;20.30;40.30;;;;;;5016163;28;20165;-67
2022/03/13 00:30:45;;;;;;;5.30;4.80;;;20.30;40.30;;;;;;4993913;28;20246;-67
2022/03/13 00:33:11;;;;;;;5.47;4.95;;;20.30;40.30;;;;;;4978672;28;20177;-67
2022/03/13 00:35:38;;;;;;;4.45;4.00;;;20.30;40.20;;;;;;4995095;28;20193;-67
2022/03/13 00:38:06;;;;;;;5.10;4.45;;;20.30;40.30;;;;;;4978336;28;20216;-67
2022/03/13 00:40:32;;;;;;;4.00;3.70;;;20.30;40.30;;;;;;4974982;28;20186;-67
2022/03/13 00:43:02;;;;;;;4.50;4.05;;;20.30;40.20;;;;;;4994678;28;20185;-67
2022/03/13 00:45:29;;;;;;;4.70;4.30;;;20.30;40.20;;;;;;4995850;28;20184;-67
2022/03/13 00:47:56;;;;;;;4.30;3.85;;;20.20;40.20;;;;;;4978322;28;20192;-67
2022/03/13 00:50:23;;;;;;;4.68;4.28;;;20.20;40.20;;;;;;4977862;28;20181;-67
2022/03/13 00:52:49;;;;;;;5.47;4.32;;;20.30;40.90;;;;;;4978502;28;20188;-68
2022/03/13 00:55:15;;;;;;;4.40;4.00;;;20.20;40.20;;;;;;4962357;28;20204;-67
2022/03/13 00:57:43;;;;;;;4.38;3.78;;;20.30;40.30;;;;;;4995787;28;20658;-67
2022/03/13 01:00:13;;;;;;;4.43;4.03;;;20.20;40.20;;;;;;4994118;28;20215;-67
2022/03/13 01:02:41;;;;;;;5.07;4.43;;;20.20;40.30;;;;;;4978282;28;20173;-67
2022/03/13 01:05:10;;;;;;;4.40;4.00;;;20.20;40.20;;;;;;4977859;28;20188;-67
2022/03/13 01:07:39;;;;;;;5.05;4.55;;;20.30;40.30;;;;;;4995183;28;20204;-67
2022/03/13 01:10:08;;;;;;;5.45;4.60;;;20.20;40.20;;;;;;4977976;28;20263;-67
2022/03/13 01:12:35;;;;;;;5.13;4.63;;;20.20;40.10;;;;;;4977983;28;20181;-67
2022/03/13 01:15:01;;;;;;;4.63;4.22;;;20.20;40.10;;;;;;4977821;28;20188;-67
2022/03/13 01:17:27;;;;;;;4.63;4.22;;;20.20;40.10;;;;;;4961527;28;20196;-67
2022/03/13 01:19:53;;;;;;;5.68;4.65;;;20.20;40.10;;;;;;4977433;28;20205;-67
2022/03/13 01:22:19;;;;;;;4.70;4.30;;;20.20;40.10;;;;;;4994097;28;20708;-67
2022/03/13 01:24:45;;;;;;;5.10;4.60;;;20.20;40.10;;;;;;4994090;28;20292;-67
2022/03/13 01:27:15;;;;;;;3.85;3.55;;;20.20;40.00;;;;;;4977779;28;20181;-67
2022/03/13 01:29:42;;;;;;;4.20;3.90;;;20.20;40.10;;;;;;4977364;28;20220;-67
2022/03/13 01:32:12;;;;;;;5.45;4.22;;;20.20;40.10;;;;;;4976794;28;20573;-67
2022/03/13 01:34:42;;;;;;;5.32;4.22;;;20.20;40.20;;;;;;4993523;28;20189;-67
2022/03/13 01:37:19;;;;;;;4.38;3.97;;;20.20;40.10;;;;;;4977893;28;20196;-67
2022/03/13 01:39:48;;;;;;;4.40;4.00;;;20.20;40.20;;;;;;4993574;28;20712;-67
2022/03/13 01:42:14;;;;;;;4.57;4.18;;;20.20;40.20;;;;;;4993531;28;20188;-67
2022/03/13 01:44:40;;;;;;;4.75;4.25;;;20.20;40.10;;;;;;4977252;28;20188;-67
2022/03/13 01:47:07;;;;;;;4.63;4.22;;;20.20;40.10;;;;;;4994619;28;20231;-67
2022/03/13 01:49:33;;;;;;;5.05;4.55;;;20.20;40.10;;;;;;4993308;28;20274;-67
2022/03/13 01:52:01;;;;;;;5.63;4.78;;;20.20;40.10;;;;;;4994484;28;20189;-67
2022/03/13 01:54:30;;;;;;;4.95;4.55;;;20.20;40.10;;;;;;4993688;28;20255;-67
2022/03/13 01:56:57;;;;;;;4.72;4.25;;;20.20;40.10;;;;;;4960913;28;20189;-67
2022/03/13 01:59:23;;;;;;;4.90;4.40;;;20.20;40.10;;;;;;4994370;28;20217;-67
2022/03/13 02:01:49;;;;;;;4.60;4.18;;;20.20;40.20;;;;;;4976735;28;20192;-67
2022/03/13 02:04:26;;;;;;;4.53;4.07;;;20.10;39.90;;;;;;4993290;28;20191;-67
2022/03/13 02:06:55;;;;;;;4.43;4.03;;;20.20;40.00;;;;;;4993217;28;20192;-67
2022/03/13 02:09:22;;;;;;;4.65;4.25;;;20.10;40.00;;;;;;4977110;28;20208;-67
2022/03/13 02:11:51;;;;;;;5.38;4.88;;;20.10;40.00;;;;;;4976765;28;20247;-67
2022/03/13 02:14:23;;;;;;;5.22;3.92;;;20.20;40.10;;;;;;4976795;28;20184;-67
2022/03/13 02:16:51;;;;;;;4.13;3.80;;;20.20;40.10;;;;;;4976990;28;20354;-67
2022/03/13 02:19:18;;;;;;;4.30;3.88;;;20.20;40.10;;;;;;4971007;28;20216;-67
2022/03/13 02:21:51;;;;;;;4.43;4.03;;;20.20;40.20;;;;;;4990634;28;20227;-67
2022/03/13 02:24:21;;;;;;;3.60;3.30;;;20.20;40.10;;;;;;4994193;28;20177;-67
2022/03/13 02:27:06;;;;;;;4.60;4.15;;;20.10;40.00;;;;;;4976709;28;20184;-67
2022/03/13 02:29:32;;;;;;;4.95;4.45;;;20.10;40.10;;;;;;4992515;28;20220;-67
2022/03/13 02:32:00;;;;;;;4.50;4.10;;;20.10;40.00;;;;;;4992789;28;20188;-67
2022/03/13 02:34:28;;;;;;;5.07;4.60;;;20.10;39.90;;;;;;4992627;28;20188;-67
2022/03/13 02:36:58;;;;;;;4.47;4.07;;;20.20;40.10;;;;;;4992459;28;20185;-67
2022/03/13 02:39:25;;;;;;;4.50;4.10;;;20.10;39.80;;;;;;4992495;28;20227;-67
2022/03/13 02:41:51;;;;;;;4.93;4.53;;;20.10;39.90;;;;;;4992619;28;20185;-67
2022/03/13 02:44:19;;;;;;;4.05;3.72;;;20.10;39.90;;;;;;4975761;28;20188;-70
2022/03/13 02:46:48;;;;;;;4.43;4.03;;;20.10;40.00;;;;;;4976420;28;20192;-70
2022/03/13 02:49:17;;;;;;;4.10;3.75;;;20.10;40.00;;;;;;4989113;28;20213;-70
2022/03/13 02:51:44;;;;;;;4.15;3.80;;;20.10;40.00;;;;;;4990919;28;20199;-70
2022/03/13 02:54:11;;;;;;;4.60;4.20;;;20.10;40.00;;;;;;4993798;28;20169;-70
2022/03/13 02:56:37;;;;;;;4.45;4.05;;;20.10;40.00;;;;;;4993384;28;20559;-70
2022/03/13 02:59:03;;;;;;;4.43;4.03;;;20.10;40.00;;;;;;4976064;28;20216;-70
2022/03/13 03:01:29;;;;;;;5.53;4.07;;;20.10;40.00;;;;;;4975801;28;20618;-70
2022/03/13 03:04:00;;;;;;;4.32;3.92;;;20.10;39.90;;;;;;4993292;28;20207;-70
2022/03/13 03:06:29;;;;;;;4.70;4.28;;;20.10;40.00;;;;;;4975725;28;20578;-69
2022/03/13 03:08:56;;;;;;;4.03;3.67;;;20.10;39.90;;;;;;4991887;28;20307;-70
2022/03/13 03:11:23;;;;;;;4.05;3.70;;;20.10;39.90;;;;;;4970467;28;20227;-70
2022/03/13 03:13:49;;;;;;;4.22;3.83;;;20.10;39.90;;;;;;4986621;28;20265;-70
2022/03/13 03:16:15;;;;;;;4.32;3.92;;;20.10;39.90;;;;;;4953422;28;20694;-70
2022/03/13 03:18:41;;;;;;;4.47;4.07;;;20.10;39.90;;;;;;4991585;28;20244;-70
2022/03/13 03:21:07;;;;;;;4.68;4.28;;;20.10;39.90;;;;;;4991985;28;20197;-70
2022/03/13 03:23:34;;;;;;;5.18;4.75;;;20.10;39.90;;;;;;4975936;28;20184;-70
2022/03/13 03:26:00;;;;;;;4.97;4.47;;;20.10;39.90;;;;;;4992044;28;20196;-70
2022/03/13 03:28:25;;;;;;;4.22;3.83;;;20.10;39.80;;;;;;4992878;28;20212;-70
2022/03/13 03:30:51;;;;;;;4.53;4.13;;;20.10;39.80;;;;;;4975745;28;20200;-70
2022/03/13 03:33:17;;;;;;;4.35;3.95;;;20.10;39.90;;;;;;4959381;28;20638;-70
2022/03/13 03:35:43;;;;;;;4.60;4.07;;;20.10;39.90;;;;;;4991641;28;20251;-70
2022/03/13 03:38:09;;;;;;;4.07;3.78;;;20.10;39.80;;;;;;4992766;28;20697;-70
2022/03/13 03:40:35;;;;;;;4.15;3.75;;;20.10;39.90;;;;;;4975142;28;20192;-70
2022/03/13 03:43:05;;;;;;;4.30;3.90;;;20.10;39.90;;;;;;4975553;28;20191;-70
2022/03/13 03:45:31;;;;;;;4.85;4.10;;;20.10;39.90;;;;;;4975717;28;20605;-70
2022/03/13 03:47:59;;;;;;;3.97;3.58;;;20.10;39.90;;;;;;4991427;28;20235;-70
2022/03/13 03:50:27;;;;;;;4.07;3.67;;;20.10;39.90;;;;;;4958762;28;20200;-70
2022/03/13 03:52:55;;;;;;;4.20;3.42;;;20.10;39.90;;;;;;4975415;28;20189;-70
2022/03/13 03:55:23;;;;;;;4.03;3.72;;;20.10;39.90;;;;;;4975432;28;20193;-70
2022/03/13 03:57:49;;;;;;;4.20;3.80;;;20.10;40.50;;;;;;4995449;28;20219;-70
2022/03/13 04:00:16;;;;;;;4.00;3.65;;;20.10;39.80;;;;;;4996518;28;20196;-70
2022/03/13 04:02:43;;;;;;;4.82;4.43;;;20.10;39.90;;;;;;4979395;28;20733;-70
2022/03/13 04:05:10;;;;;;;4.55;4.15;;;20.00;39.80;;;;;;4995449;28;20181;-70
2022/03/13 04:07:37;;;;;;;4.70;4.30;;;20.10;39.90;;;;;;4979086;28;20177;-70
2022/03/13 04:10:05;;;;;;;3.65;3.35;;;20.10;39.80;;;;;;4995156;28;20204;-70
2022/03/13 04:12:33;;;;;;;4.38;3.97;;;20.00;39.80;;;;;;4963003;28;20188;-70
2022/03/13 04:14:58;;;;;;;4.30;3.90;;;20.10;39.70;;;;;;4995709;28;20178;-70
2022/03/13 04:17:24;;;;;;;4.47;4.07;;;20.00;39.60;;;;;;4991820;28;20194;-70
2022/03/13 04:19:50;;;;;;;4.40;4.00;;;20.00;39.70;;;;;;4987020;28;20210;-70
2022/03/13 04:22:16;;;;;;;4.25;3.85;;;20.00;39.60;;;;;;4995106;28;20189;-70
2022/03/13 04:24:42;;;;;;;3.85;3.55;;;20.00;39.60;;;;;;4978939;28;20189;-70
2022/03/13 04:27:09;;;;;;;4.15;3.75;;;20.00;39.80;;;;;;4978821;28;20185;-70
2022/03/13 04:29:34;;;;;;;4.68;4.28;;;20.00;39.80;;;;;;4978553;28;20227;-70
2022/03/13 04:32:05;;;;;;;3.92;3.63;;;20.00;39.70;;;;;;4959811;28;20194;-70
2022/03/13 04:34:32;;;;;;;4.18;3.78;;;20.00;39.70;;;;;;4975497;28;20237;-70
2022/03/13 04:37:00;;;;;;;4.38;3.97;;;20.00;39.80;;;;;;4959478;28;20670;-70
2022/03/13 04:39:26;;;;;;;4.40;4.00;;;20.00;39.70;;;;;;4975100;28;20217;-70
2022/03/13 04:41:53;;;;;;;3.30;3.10;;;20.00;39.80;;;;;;4943142;28;20178;-69
2022/03/13 04:44:20;;;;;;;4.10;3.72;;;20.00;39.80;;;;;;4975600;28;20217;-70
2022/03/13 04:46:46;;;;;;;4.00;3.60;;;20.00;39.70;;;;;;4975616;28;20178;-70
2022/03/13 04:49:12;;;;;;;4.13;3.72;;;20.00;39.70;;;;;;4993578;28;20219;-70
2022/03/13 04:51:39;;;;;;;4.43;3.97;;;20.00;39.70;;;;;;4988017;28;20252;-70
2022/03/13 04:54:08;;;;;;;4.50;4.10;;;20.00;39.70;;;;;;4975000;28;20181;-70
2022/03/13 04:56:34;;;;;;;4.70;4.28;;;20.00;39.80;;;;;;4974887;28;20284;-70
2022/03/13 04:59:00;;;;;;;4.43;4.03;;;20.00;39.70;;;;;;4974762;28;20699;-70
2022/03/13 05:01:26;;;;;;;4.57;4.18;;;20.00;39.70;;;;;;4974719;28;20194;-70
2022/03/13 05:03:53;;;;;;;4.75;4.10;;;20.00;39.70;;;;;;4974951;28;20178;-70
2022/03/13 05:06:19;;;;;;;4.22;3.83;;;20.00;39.60;;;;;;4974477;28;20181;-70
2022/03/13 05:08:45;;;;;;;4.38;3.97;;;20.00;39.60;;;;;;4975921;28;20227;-70
2022/03/13 05:11:10;;;;;;;4.60;4.10;;;20.00;39.70;;;;;;4993915;28;20185;-70
2022/03/13 05:13:37;;;;;;;4.00;3.70;;;20.00;39.70;;;;;;4977813;28;20204;-69
2022/03/13 05:16:03;;;;;;;4.70;4.20;;;20.00;39.60;;;;;;4977909;28;20197;-70
2022/03/13 05:18:29;;;;;;;4.28;3.88;;;20.00;39.60;;;;;;4977709;28;20235;-70
2022/03/13 05:20:55;;;;;;;4.60;3.90;;;19.90;39.60;;;;;;4977494;28;20188;-70
2022/03/13 05:23:22;;;;;;;4.50;4.10;;;20.00;39.70;;;;;;4977771;28;20185;-70
2022/03/13 05:25:48;;;;;;;4.03;3.70;;;20.00;39.80;;;;;;4993794;28;20640;-70
2022/03/13 05:28:14;;;;;;;4.35;4.00;;;19.90;39.60;;;;;;4994873;28;20220;-70
2022/03/13 05:30:41;;;;;;;4.15;3.85;;;19.90;39.70;;;;;;4977381;28;20193;-69
2022/03/13 05:33:08;;;;;;;4.30;3.90;;;19.90;39.70;;;;;;4977941;28;20292;-70
2022/03/13 05:35:35;;;;;;;4.43;3.78;;;19.90;39.70;;;;;;4977826;28;20197;-69
2022/03/13 05:38:01;;;;;;;4.15;3.78;;;19.90;39.70;;;;;;4977404;28;20220;-70
2022/03/13 05:40:28;;;;;;;3.95;3.65;;;19.90;39.60;;;;;;4977314;28;20238;-69
2022/03/13 05:42:57;;;;;;;3.97;3.58;;;19.90;39.70;;;;;;4977467;28;20192;-70
2022/03/13 05:45:26;;;;;;;4.25;3.85;;;19.90;39.60;;;;;;4977342;28;20204;-70
2022/03/13 05:47:53;;;;;;;4.45;4.07;;;19.90;39.60;;;;;;4977558;28;20237;-69
2022/03/13 05:50:23;;;;;;;4.32;3.92;;;19.90;39.70;;;;;;4994515;28;20689;-70
2022/03/13 05:52:49;;;;;;;4.25;3.88;;;19.90;39.60;;;;;;4993606;28;20665;-70
2022/03/13 05:55:17;;;;;;;4.20;3.83;;;19.90;39.60;;;;;;4993779;28;20249;-70
2022/03/13 05:57:43;;;;;;;4.43;4.03;;;19.90;39.60;;;;;;4977330;28;20639;-70
2022/03/13 06:00:14;;;;;;;5.25;4.47;;;19.90;39.60;;;;;;4976887;28;20209;-69
2022/03/13 06:02:46;;;;;;;4.80;4.40;;;19.90;39.60;;;;;;4993610;28;20173;-70
2022/03/13 06:05:13;;;;;;;4.20;3.83;;;19.90;39.50;;;;;;4993184;28;20197;-70
2022/03/13 06:07:40;;;;;;;4.30;3.90;;;19.90;39.50;;;;;;4977346;28;20192;-70
2022/03/13 06:10:08;;;;;;;4.05;3.65;;;19.90;39.60;;;;;;4992923;28;20205;-69
2022/03/13 06:12:36;;;;;;;4.10;3.55;;;19.90;39.60;;;;;;4977038;28;20184;-70
2022/03/13 06:15:05;;;;;;;4.13;3.72;;;19.90;39.60;;;;;;4977040;28;20195;-70
2022/03/13 06:17:31;;;;;;;4.07;3.78;;;19.90;39.60;;;;;;4993923;28;20192;-70
2022/03/13 06:19:58;;;;;;;3.97;3.65;;;19.90;39.60;;;;;;4992172;28;20615;-70
2022/03/13 06:22:25;;;;;;;4.20;3.90;;;19.90;39.60;;;;;;4992850;28;20173;-70
2022/03/13 06:24:52;;;;;;;4.60;4.15;;;19.90;39.60;;;;;;4975245;28;20177;-70
2022/03/13 06:27:21;;;;;;;4.15;3.75;;;19.90;39.60;;;;;;4957430;28;20679;-70
2022/03/13 06:29:47;;;;;;;4.82;4.43;;;19.90;39.60;;;;;;4957327;28;20212;-70
2022/03/13 06:32:13;;;;;;;4.65;4.25;;;19.90;39.60;;;;;;5004980;23;20800;-66
2022/03/13 06:34:39;;;;;;;6.22;4.80;;;19.90;39.60;;;;;;4976034;28;20260;-66
2022/03/13 06:37:05;;;;;;;5.10;4.60;;;19.90;39.50;;;;;;4971326;28;20272;-66
2022/03/13 06:39:32;;;;;;;4.63;4.22;;;19.90;39.60;;;;;;4974926;28;20212;-66
2022/03/13 06:41:58;;;;;;;4.95;4.53;;;19.90;39.60;;;;;;4990943;28;20656;-66
2022/03/13 06:44:24;;;;;;;4.93;4.47;;;19.90;39.60;;;;;;4992076;28;20185;-67
2022/03/13 06:46:49;;;;;;;5.75;5.05;;;19.90;39.60;;;;;;4991576;28;20181;-66
2022/03/13 06:49:17;;;;;;;4.80;4.40;;;19.90;39.40;;;;;;4975920;28;20193;-66
2022/03/13 06:51:43;;;;;;;4.78;4.35;;;19.90;39.50;;;;;;4992729;28;20210;-66
2022/03/13 06:54:11;;;;;;;4.50;4.10;;;19.90;39.60;;;;;;4975271;28;20594;-66
2022/03/13 06:56:38;;;;;;;4.63;4.22;;;19.90;39.40;;;;;;4975735;28;20185;-66
2022/03/13 06:59:05;;;;;;;4.28;3.88;;;20.00;39.60;;;;;;4991638;28;20263;-65
2022/03/13 07:01:33;;;;;;;5.20;4.70;;;20.00;39.50;;;;;;4991637;28;20690;-66
2022/03/13 07:04:00;;;;;;;4.70;4.30;;;20.10;39.50;;;;;;4991134;28;20181;-66
2022/03/13 07:06:26;;;;;;;4.10;3.70;;;20.10;39.50;;;;;;4975399;28;20193;-65
2022/03/13 07:08:52;;;;;;;4.43;4.03;;;20.10;39.40;;;;;;4975467;28;20225;-66
2022/03/13 07:11:19;;;;;;;4.32;3.92;;;20.20;39.50;;;;;;4990946;28;20200;-66
2022/03/13 07:13:45;;;;;;;4.75;4.35;;;20.20;39.40;;;;;;4991132;28;20188;-65
2022/03/13 07:16:15;;;;;;;4.75;4.35;;;20.20;39.40;;;;;;4992752;28;20227;-65
2022/03/13 07:18:42;;;;;;;4.35;3.95;;;20.20;39.30;;;;;;4974696;28;20209;-65
2022/03/13 07:21:09;;;;;;;4.57;4.18;;;20.30;39.40;;;;;;4991709;28;20196;-65
2022/03/13 07:23:36;;;;;;;4.80;4.40;;;20.30;39.40;;;;;;4975010;28;20267;-65
2022/03/13 07:26:02;;;;;;;4.93;4.38;;;20.30;39.40;;;;;;4992920;28;20628;-65
2022/03/13 07:28:29;;;;;;;5.03;4.53;;;20.30;39.30;;;;;;4991789;28;20284;-64
2022/03/13 07:30:55;;;;;;;5.53;5.03;;;20.30;39.30;;;;;;4991402;28;20216;-65
2022/03/13 07:33:21;;;;;;;8.00;6.13;;;20.30;39.30;;;;;;4991854;28;20177;-65
2022/03/13 07:35:47;;;;;;;5.35;4.85;;;20.30;39.40;;;;;;4975794;28;20199;-65
2022/03/13 07:38:13;;;;;;;4.88;4.47;;;20.40;39.40;;;;;;4975572;28;20219;-65
2022/03/13 07:40:38;;;;;;;5.97;5.03;;;20.40;39.50;;;;;;4991411;28;20181;-65
2022/03/13 07:43:06;;;;;;;6.13;5.53;;;20.40;39.40;;;;;;4991803;28;20187;-65
2022/03/13 07:45:32;;;;;;;7.60;5.53;;;20.40;39.90;;;;;;4975446;28;20181;-65
2022/03/13 07:47:59;;;;;;;5.72;5.15;;;20.40;39.50;;;;;;4975761;28;20199;-65
2022/03/13 07:50:28;;;;;;;5.40;4.90;;;20.40;39.40;;;;;;4992466;28;20234;-66
2022/03/13 07:52:54;;;;;;;5.43;4.90;;;20.50;39.40;;;;;;4975612;28;20748;-65
2022/03/13 07:55:22;;;;;;;5.47;4.97;;;20.50;39.40;;;;;;4991724;28;20235;-65
2022/03/13 07:57:49;;;;;;;7.43;4.88;;;20.50;39.50;;;;;;4992713;28;20216;-65
2022/03/13 08:00:17;;;;;;;5.30;4.80;;;20.50;39.50;;;;;;4974940;28;20185;-65
2022/03/13 08:02:47;;;;;;;5.55;5.05;;;20.50;39.40;;;;;;4992196;28;20231;-65
2022/03/13 08:05:18;;;;;;;5.65;5.00;;;20.50;39.40;;;;;;4974851;28;20188;-65
2022/03/13 08:07:46;;;;;;;5.10;4.60;;;20.50;39.40;;;;;;4975070;28;20185;-65
2022/03/13 08:10:12;;;;;;;5.30;4.88;;;20.50;39.30;;;;;;4974797;28;20189;-65
2022/03/13 08:12:38;;;;;;;5.72;4.95;;;20.50;39.30;;;;;;4977633;28;20212;-65
2022/03/13 08:15:09;;;;;;;5.53;4.97;;;20.60;39.40;;;;;;4990747;28;20698;-65
2022/03/13 08:17:35;;;;;;;5.60;5.10;;;20.60;39.40;;;;;;4974528;28;20189;-65
2022/03/13 08:20:06;;;;;;;4.78;4.38;;;20.60;39.50;;;;;;4974387;28;20188;-65
2022/03/13 08:22:33;;;;;;;5.20;4.70;;;20.60;39.50;;;;;;4974638;28;20224;-65
2022/03/13 08:24:59;;;;;;;5.00;4.50;;;20.60;39.50;;;;;;4974571;28;20189;-65
2022/03/13 08:27:25;;;;;;;6.00;4.72;;;20.60;39.40;;;;;;4990388;28;20185;-65
2022/03/13 08:29:51;;;;;;;6.15;4.82;;;20.60;39.50;;;;;;4990474;28;20189;-65
2022/03/13 08:32:17;;;;;;;5.55;4.90;;;20.60;39.50;;;;;;4974278;28;20635;-68
2022/03/13 08:34:45;;;;;;;6.55;4.88;;;20.60;39.50;;;;;;4958439;28;20188;-67
2022/03/13 08:37:12;;;;;;;5.07;4.63;;;20.60;39.50;;;;;;4973962;28;20199;-68
2022/03/13 08:39:39;;;;;;;5.18;4.75;;;20.60;39.50;;;;;;4973952;28;20300;-65
2022/03/13 08:42:06;;;;;;;4.88;4.47;;;20.60;39.50;;;;;;4983872;28;20697;-65
2022/03/13 08:44:32;;;;;;;4.40;4.00;;;20.70;39.60;;;;;;4977730;28;20189;-65
2022/03/13 08:46:58;;;;;;;5.45;4.95;;;20.60;39.50;;;;;;4994281;28;20733;-65
2022/03/13 08:49:25;;;;;;;5.55;4.55;;;20.60;39.50;;;;;;4994536;28;20193;-67
2022/03/13 08:51:51;;;;;;;5.57;4.85;;;20.60;39.50;;;;;;4977408;28;20209;-65
2022/03/13 08:54:20;;;;;;;4.80;4.30;;;20.60;39.50;;;;;;4977882;28;20253;-65
2022/03/13 08:56:49;;;;;;;6.05;4.35;;;20.70;39.60;;;;;;4977279;28;20199;-65
2022/03/13 08:59:16;;;;;;;5.40;4.65;;;20.70;39.60;;;;;;4977498;28;20216;-65
2022/03/13 09:01:44;;;;;;;5.60;4.65;;;20.60;39.50;;;;;;4977997;28;20269;-65
2022/03/13 09:04:10;;;;;;;5.32;4.53;;;20.60;39.50;;;;;;4993636;28;20184;-65
2022/03/13 09:06:39;;;;;;;5.40;4.75;;;20.70;39.60;;;;;;4977659;28;20193;-65
2022/03/13 09:09:08;;;;;;;4.45;4.05;;;20.60;39.50;;;;;;4977563;28;20188;-65
2022/03/13 09:11:34;;;;;;;5.07;4.55;;;20.70;39.60;;;;;;4977545;28;20212;-66
2022/03/13 09:14:00;;;;;;;4.53;4.13;;;20.70;39.70;;;;;;4976856;28;20247;-65
2022/03/13 09:16:26;;;;;;;5.00;4.57;;;20.70;39.60;;;;;;4993707;28;20195;-66
2022/03/13 09:18:53;;;;;;;4.50;4.10;;;20.70;39.70;;;;;;4993384;28;20756;-65
2022/03/13 09:21:19;;;;;;;4.82;4.38;;;20.60;39.60;;;;;;4994189;28;20259;-65
2022/03/13 09:23:45;;;;;;;4.60;4.05;;;20.70;39.70;;;;;;4977179;28;20189;-65
2022/03/13 09:26:11;;;;;;;4.70;4.30;;;20.70;39.70;;;;;;4993783;28;20193;-65
2022/03/13 09:28:39;;;;;;;4.90;4.40;;;20.70;39.70;;;;;;4977483;28;20208;-67
2022/03/13 09:31:06;;;;;;;6.20;4.50;;;20.70;39.70;;;;;;4976534;28;20217;-65
2022/03/13 09:33:32;;;;;;;5.28;4.78;;;20.70;39.80;;;;;;4993128;28;20266;-65
2022/03/13 09:35:58;;;;;;;4.60;4.20;;;20.70;39.70;;;;;;4977212;28;20188;-65
2022/03/13 09:38:25;;;;;;;5.30;4.75;;;20.70;39.80;;;;;;4976586;28;20216;-63
2022/03/13 09:40:51;;;;;;;6.15;4.65;;;20.70;39.70;;;;;;4992953;28;20276;-66
2022/03/13 09:43:19;;;;;;;5.63;4.50;;;20.70;39.80;;;;;;4993231;28;20185;-65
2022/03/13 09:45:46;;;;;;;5.70;5.05;;;20.70;39.70;;;;;;4995588;28;20254;-65
2022/03/13 09:48:15;;;;;;;5.00;4.50;;;20.70;39.70;;;;;;4976690;28;20193;-65
2022/03/13 09:50:42;;;;;;;5.30;4.78;;;20.70;39.80;;;;;;4992284;28;20739;-65
2022/03/13 09:53:08;;;;;;;5.25;4.78;;;20.70;39.70;;;;;;4991810;28;20196;-65
2022/03/13 09:55:34;;;;;;;5.50;4.32;;;20.70;39.80;;;;;;4992729;28;20279;-65
2022/03/13 09:58:00;;;;;;;4.43;4.03;;;20.70;39.80;;;;;;4976392;28;20259;-66
2022/03/13 10:00:26;;;;;;;5.13;4.63;;;20.70;39.70;;;;;;4992731;28;20748;-66
2022/03/13 10:02:54;;;;;;;5.03;4.38;;;20.70;39.80;;;;;;4992756;28;20208;-66
2022/03/13 10:05:21;;;;;;;5.32;4.53;;;20.60;39.80;;;;;;4976710;28;20189;-65
2022/03/13 10:08:00;;;;;;;5.10;4.60;;;20.70;39.80;;;;;;4992501;28;20191;-65
2022/03/13 10:10:30;;;;;;;4.95;4.45;;;20.70;39.80;;;;;;4993349;28;20181;-64
2022/03/13 10:13:01;;;;;;;5.05;4.57;;;20.70;39.80;;;;;;4992611;28;20211;-67
2022/03/13 10:15:28;;;;;;;5.47;5.03;;;20.70;39.90;;;;;;4992616;28;20188;-65
2022/03/13 10:17:54;;;;;;;5.15;4.65;;;20.70;39.80;;;;;;4996228;28;20251;-65
2022/03/13 10:20:25;;;;;;;5.20;4.70;;;20.70;39.80;;;;;;4978114;28;20667;-65
2022/03/13 10:23:01;;;;;;;5.50;5.00;;;20.70;39.80;;;;;;4972887;28;20212;-65
2022/03/13 10:25:29;;;;;;;5.35;4.85;;;20.70;39.70;;;;;;4991792;28;20235;-65
2022/03/13 10:28:12;;;;;;;5.20;4.70;;;20.70;39.70;;;;;;4975701;28;20197;-65
2022/03/13 10:30:40;;;;;;;4.70;4.30;;;20.70;39.80;;;;;;4975739;28;20184;-65
2022/03/13 10:33:08;;;;;;;5.13;4.68;;;20.70;39.80;;;;;;4976023;28;20189;-65
2022/03/13 10:35:37;;;;;;;5.60;4.63;;;20.70;39.80;;;;;;4991767;28;20185;-65
2022/03/13 10:38:23;;;;;;;5.22;4.78;;;20.70;39.80;;;;;;4976069;28;20212;-65
2022/03/13 10:40:56;;;;;;;4.28;3.88;;;20.70;39.80;;;;;;4991852;28;20228;-65
2022/03/13 10:43:26;;;;;;;4.97;4.53;;;20.70;39.90;;;;;;4975577;28;20206;-66
2022/03/13 10:45:54;;;;;;;5.53;5.03;;;20.70;40.40;;;;;;4975875;28;20224;-65
2022/03/13 10:48:32;;;;;;;5.47;4.97;;;20.70;39.90;;;;;;4975792;28;20185;-65
2022/03/13 10:51:05;;;;;;;5.72;5.10;;;20.70;39.90;;;;;;4991571;28;20208;-66
2022/03/13 10:53:32;;;;;;;5.07;4.68;;;20.70;39.80;;;;;;4992781;28;20177;-65
2022/03/13 10:56:07;;;;;;;6.78;4.93;;;20.70;39.80;;;;;;4992000;28;20181;-65
2022/03/13 10:58:39;;;;;;;4.95;4.53;;;20.70;39.80;;;;;;4991386;28;20251;-66
2022/03/13 11:01:16;;;;;;;5.07;4.68;;;20.70;39.70;;;;;;4974911;28;20201;-67
2022/03/13 11:04:02;;;;;;;4.72;4.32;;;20.70;39.70;;;;;;4992555;28;20260;-65
2022/03/13 11:06:29;;;;;;;4.97;4.53;;;20.70;39.80;;;;;;4975228;28;20661;-65
2022/03/13 11:08:56;;;;;;;4.85;4.35;;;20.70;39.70;;;;;;4975594;28;20691;-65
2022/03/13 11:11:27;;;;;;;4.80;4.40;;;20.70;39.80;;;;;;4974805;28;20216;-65
2022/03/13 11:14:01;;;;;;;6.13;4.55;;;20.70;39.80;;;;;;4975540;28;20189;-68
2022/03/13 11:16:32;;;;;;;5.18;4.68;;;20.70;39.90;;;;;;4991696;28;20271;-65
2022/03/13 11:19:05;;;;;;;5.35;4.60;;;20.70;39.80;;;;;;4974918;28;20248;-65
2022/03/13 11:21:32;;;;;;;5.53;5.03;;;20.70;39.70;;;;;;4991213;28;20272;-65
2022/03/13 11:24:03;;;;;;;5.65;5.15;;;20.70;39.80;;;;;;4991132;28;20267;-65
2022/03/13 11:26:30;;;;;;;5.32;4.82;;;20.70;39.70;;;;;;4975392;28;20204;-65
2022/03/13 11:28:58;;;;;;;4.40;4.00;;;20.70;39.70;;;;;;4990969;28;20199;-65
2022/03/13 11:31:41;;;;;;;4.93;4.50;;;20.70;39.70;;;;;;4992451;28;20219;-67
2022/03/13 11:34:16;;;;;;;5.03;4.50;;;20.70;39.80;;;;;;4992553;28;20243;-65
2022/03/13 11:36:47;;;;;;;4.63;4.22;;;20.70;39.70;;;;;;4990906;28;20204;-65
2022/03/13 11:39:28;;;;;;;5.13;4.40;;;20.70;39.80;;;;;;4974929;28;20208;-65
2022/03/13 11:41:55;;;;;;;5.05;4.45;;;20.70;39.80;;;;;;4977002;28;20251;-65
2022/03/13 11:44:23;;;;;;;4.75;4.35;;;20.70;39.70;;;;;;4990800;28;20181;-65
2022/03/13 11:46:58;;;;;;;5.10;4.60;;;20.70;39.80;;;;;;4991157;28;20242;-65
2022/03/13 11:49:29;;;;;;;5.20;4.70;;;20.70;39.70;;;;;;4974902;28;20224;-65
2022/03/13 11:52:13;;;;;;;4.88;4.43;;;20.70;39.60;;;;;;4974815;28;20208;-68
2022/03/13 11:54:53;;;;;;;4.70;4.30;;;20.70;39.70;;;;;;4992355;28;20189;-65
2022/03/13 11:57:26;;;;;;;4.70;4.30;;;20.70;39.70;;;;;;4990703;28;20196;-65
2022/03/13 12:00:10;;;;;;;4.35;4.00;;;20.70;39.70;;;;;;4974496;28;20216;-66
2022/03/13 12:02:43;;;;;;;4.55;4.15;;;20.70;39.80;;;;;;4990592;28;20217;-65
2022/03/13 12:05:31;;;;;;;4.97;4.18;;;20.70;39.80;;;;;;4991183;28;20199;-65
2022/03/13 12:08:05;;;;;;;4.35;3.95;;;20.70;39.90;;;;;;4991100;28;20196;-63
2022/03/13 12:10:42;;;;;;;5.25;4.15;;;20.70;39.80;;;;;;4974750;28;20207;-66
2022/03/13 12:13:10;;;;;;;4.80;4.40;;;20.70;39.70;;;;;;4990994;28;20223;-65
2022/03/13 12:15:39;;;;;;;4.57;4.18;;;20.70;39.80;;;;;;4974486;28;20189;-65
2022/03/13 12:18:27;;;;;;;4.53;4.13;;;20.70;39.80;;;;;;4992916;28;20216;-65
2022/03/13 12:21:10;;;;;;;4.70;4.30;;;20.70;39.70;;;;;;4994227;28;20213;-66
2022/03/13 12:23:39;;;;;;;4.50;4.10;;;20.70;39.80;;;;;;4994611;28;20185;-66
2022/03/13 12:26:20;;;;;;;3.95;3.65;;;20.70;39.90;;;;;;4978538;28;20191;-66
2022/03/13 12:28:49;;;;;;;4.38;4.07;;;20.70;39.80;;;;;;4978361;28;20279;-65
2022/03/13 12:33:47;;;;;;;4.22;3.83;;;20.80;39.80;;;;;;4970406;28;20664;-67
2022/03/13 12:36:13;;;;;;;4.55;4.15;;;20.70;39.80;;;;;;4956173;29;20234;-68
2022/03/13 12:38:45;;;;;;;4.75;4.35;;;20.70;39.80;;;;;;4957250;28;20210;-67
2022/03/13 12:41:12;;;;;;;4.03;3.72;;;20.70;39.80;;;;;;4955849;29;20183;-68
2022/03/13 12:43:52;;;;;;;4.53;4.13;;;20.70;39.70;;;;;;4955988;28;20213;-68
2022/03/13 12:46:27;;;;;;;4.32;3.92;;;20.70;39.70;;;;;;4972183;28;20186;-68
2022/03/13 12:48:58;;;;;;;4.00;3.60;;;20.70;39.70;;;;;;4957026;28;20182;-67
2022/03/13 12:51:47;;;;;;;4.20;3.80;;;20.70;39.70;;;;;;4971704;28;20297;-68
2022/03/13 12:54:22;;;;;;;4.20;3.80;;;20.70;39.90;;;;;;4955918;29;20212;-68
2022/03/13 12:56:58;;;;;;;4.05;3.75;;;20.80;40.00;;;;;;4955757;28;20186;-68
2022/03/13 12:59:41;;;;;;;4.55;4.15;;;20.80;39.80;;;;;;4955701;29;20206;-68